Time;durP1;ratioP1;P1;durP2;ratioP2;P2;SDS_P1;SDS_P2;PMS_P1;PMS_P2;Temp;Humidity;BMP_temperature;BMP_pressure;BME280_temperature;BME280_humidity;BME280_pressure;Samples;Min_cycle;Max_cycle;Signal;HPM_P1;HPM_P2
2022/03/26 00:00:21;;;;;;;5.57;4.43;;;22.20;30.10;;;;;;6323710;27;19995;-41
2022/03/26 00:03:23;;;;;;;5.00;3.38;;;22.20;30.10;;;;;;6306770;27;20050;-42
2022/03/26 00:06:25;;;;;;;4.43;4.00;;;22.20;30.20;;;;;;6324056;27;20888;-41
2022/03/26 00:09:27;;;;;;;3.85;3.35;;;22.20;30.20;;;;;;6320744;27;20130;-42
2022/03/26 00:12:29;;;;;;;3.88;3.20;;;22.10;30.80;;;;;;6318867;27;20051;-42
2022/03/26 00:15:31;;;;;;;3.65;3.35;;;22.20;30.20;;;;;;6325205;27;20131;-40
2022/03/26 00:18:33;;;;;;;3.83;3.42;;;22.20;30.20;;;;;;6316135;27;20043;-42
2022/03/26 00:21:35;;;;;;;4.05;3.50;;;22.20;30.40;;;;;;6323775;27;20335;-41
2022/03/26 00:24:37;;;;;;;4.10;3.30;;;22.20;30.30;;;;;;6321057;27;21049;-40
2022/03/26 00:27:38;;;;;;;3.55;2.95;;;22.10;30.30;;;;;;6316450;27;20061;-40
2022/03/26 00:30:40;;;;;;;3.22;2.92;;;22.20;30.40;;;;;;6319205;27;20046;-40
2022/03/26 00:33:43;;;;;;;3.40;3.00;;;22.20;30.40;;;;;;6318989;27;20085;-41
2022/03/26 00:36:44;;;;;;;3.88;3.47;;;22.20;30.40;;;;;;6319417;27;20034;-40
2022/03/26 00:39:46;;;;;;;3.70;3.22;;;22.20;30.40;;;;;;6317836;27;20128;-41
2022/03/26 00:42:47;;;;;;;3.85;3.10;;;22.20;30.40;;;;;;6323993;27;21108;-41
2022/03/26 00:45:49;;;;;;;3.65;2.90;;;22.10;30.50;;;;;;6301515;27;20145;-40
2022/03/26 00:48:51;;;;;;;3.13;2.58;;;22.20;30.50;;;;;;6314699;27;20213;-42
2022/03/26 00:51:53;;;;;;;4.15;3.33;;;22.20;30.60;;;;;;6293891;27;20064;-41
2022/03/26 00:54:54;;;;;;;3.75;3.08;;;22.10;30.50;;;;;;6313378;27;20043;-42
2022/03/26 00:57:56;;;;;;;;;;;22.00;30.50;;;;;;6320014;27;20112;-40
2022/03/26 01:00:57;;;;;;;3.03;2.72;;;22.20;30.70;;;;;;6312520;27;20915;-40
2022/03/26 01:04:00;;;;;;;3.22;2.90;;;22.00;30.60;;;;;;6320923;27;20042;-41
2022/03/26 01:07:01;;;;;;;3.47;3.15;;;22.00;30.60;;;;;;6304015;27;20063;-42
2022/03/26 01:10:04;;;;;;;3.40;2.78;;;22.10;30.60;;;;;;6316892;27;20045;-44
2022/03/26 01:13:05;;;;;;;3.60;3.05;;;22.20;30.70;;;;;;6298797;27;20863;-43
2022/03/26 01:16:07;;;;;;;2.90;2.53;;;22.00;30.70;;;;;;6321832;27;20033;-41
2022/03/26 01:19:10;;;;;;;3.33;2.53;;;22.00;30.70;;;;;;6320718;27;20070;-41
2022/03/26 01:22:12;;;;;;;3.25;2.60;;;22.00;30.70;;;;;;6319370;27;20047;-41
2022/03/26 01:25:14;;;;;;;3.03;2.47;;;22.10;30.80;;;;;;6319348;27;20039;-42
2022/03/26 01:28:17;;;;;;;3.30;3.00;;;22.10;30.90;;;;;;6323044;27;20051;-40
2022/03/26 01:31:20;;;;;;;2.90;2.35;;;22.10;30.80;;;;;;6319964;27;20051;-41
2022/03/26 01:34:24;;;;;;;2.60;2.40;;;22.00;30.80;;;;;;6325102;27;20035;-41
2022/03/26 01:37:26;;;;;;;3.15;2.38;;;22.00;30.80;;;;;;6318336;27;20081;-44
2022/03/26 01:40:28;;;;;;;3.72;2.80;;;21.90;30.80;;;;;;6318543;27;20043;-41
2022/03/26 01:43:29;;;;;;;2.78;2.35;;;22.10;30.90;;;;;;6319507;27;20101;-41
2022/03/26 01:46:45;;;;;;;2.28;2.08;;;22.00;30.90;;;;;;6321492;27;20138;-45
2022/03/26 01:49:47;;;;;;;2.83;2.53;;;22.00;31.00;;;;;;6297614;27;20046;-41
2022/03/26 01:52:49;;;;;;;3.47;2.78;;;22.00;30.90;;;;;;6314695;27;20125;-41
2022/03/26 01:55:51;;;;;;;;;;;21.80;30.80;;;;;;6323969;27;20039;-42
2022/03/26 01:58:52;;;;;;;;;;;22.00;30.90;;;;;;6304501;27;19919;-41
2022/03/26 02:01:57;;;;;;;3.03;2.50;;;22.00;30.90;;;;;;6318919;27;19919;-42
2022/03/26 02:04:59;;;;;;;2.88;2.40;;;21.90;30.80;;;;;;6299612;27;20054;-42
2022/03/26 02:08:03;;;;;;;2.63;2.38;;;22.00;30.90;;;;;;6320737;27;20189;-41
2022/03/26 02:11:05;;;;;;;3.47;2.60;;;21.90;30.90;;;;;;6326960;27;20862;-40
2022/03/26 02:14:08;;;;;;;2.95;2.50;;;21.90;31.00;;;;;;6322530;27;20107;-41
2022/03/26 02:17:10;;;;;;;3.30;2.88;;;21.90;31.10;;;;;;6322000;27;20108;-41
2022/03/26 02:20:14;;;;;;;2.47;2.10;;;21.90;30.90;;;;;;6326959;27;20054;-41
2022/03/26 02:23:15;;;;;;;2.75;2.20;;;22.00;31.00;;;;;;6307750;27;20097;-41
2022/03/26 02:26:17;;;;;;;;;;;21.90;31.00;;;;;;6316588;27;20038;-42
2022/03/26 02:29:19;;;;;;;3.15;2.30;;;21.80;30.90;;;;;;6322358;27;19924;-41
2022/03/26 02:32:21;;;;;;;;;;;21.90;31.00;;;;;;6324207;27;20132;-41
2022/03/26 02:35:23;;;;;;;3.33;2.50;;;21.90;31.00;;;;;;6316534;27;19977;-42
2022/03/26 02:38:25;;;;;;;2.70;2.20;;;21.90;31.00;;;;;;6318925;27;20039;-41
2022/03/26 02:41:26;;;;;;;3.25;2.13;;;21.90;31.00;;;;;;6330095;27;20526;-41
2022/03/26 02:44:28;;;;;;;2.95;2.20;;;21.90;31.00;;;;;;6326321;27;20118;-42
2022/03/26 02:47:29;;;;;;;2.50;2.13;;;21.90;31.00;;;;;;6325483;27;20150;-41
2022/03/26 02:50:32;;;;;;;2.58;2.22;;;21.80;30.90;;;;;;6329364;27;20058;-41
2022/03/26 02:53:33;;;;;;;3.15;2.47;;;21.90;31.00;;;;;;6328352;27;20123;-41
2022/03/26 02:56:35;;;;;;;2.88;2.45;;;21.80;31.00;;;;;;6319770;27;20127;-42
2022/03/26 02:59:37;;;;;;;2.67;2.20;;;21.80;30.90;;;;;;6321743;27;20813;-41
2022/03/26 03:02:38;;;;;;;2.83;2.05;;;21.80;30.90;;;;;;6310976;27;20055;-42
2022/03/26 03:05:41;;;;;;;2.22;1.90;;;21.80;31.00;;;;;;6330061;27;20830;-43
2022/03/26 03:08:43;;;;;;;2.95;2.15;;;21.90;31.00;;;;;;6323534;27;20898;-41
2022/03/26 03:11:45;;;;;;;2.67;2.08;;;21.80;30.90;;;;;;6326545;27;20039;-43
2022/03/26 03:14:46;;;;;;;2.60;2.00;;;21.70;30.90;;;;;;6322888;27;20086;-42
2022/03/26 03:17:49;;;;;;;2.10;1.90;;;21.80;30.90;;;;;;6322164;27;20866;-42
2022/03/26 03:20:51;;;;;;;2.38;2.15;;;21.80;30.90;;;;;;6307930;27;20175;-42
2022/03/26 03:23:53;;;;;;;2.40;1.63;;;21.80;31.00;;;;;;6326507;27;20063;-41
2022/03/26 03:26:54;;;;;;;;;;;21.80;30.90;;;;;;6323721;27;20787;-41
2022/03/26 03:29:55;;;;;;;2.47;2.25;;;21.80;30.90;;;;;;6332286;27;21071;-42
2022/03/26 03:32:57;;;;;;;2.80;2.08;;;21.80;31.00;;;;;;6320945;27;21098;-41
2022/03/26 03:35:59;;;;;;;2.30;2.08;;;21.80;30.90;;;;;;6324007;27;20154;-41
2022/03/26 03:39:01;;;;;;;2.22;1.92;;;21.80;30.90;;;;;;6328747;27;20617;-42
2022/03/26 03:42:03;;;;;;;1.90;1.70;;;21.70;30.90;;;;;;6328797;27;20544;-43
2022/03/26 03:45:07;;;;;;;2.50;1.85;;;21.70;30.90;;;;;;6329170;27;20031;-42
2022/03/26 03:48:09;;;;;;;2.35;1.90;;;21.70;30.90;;;;;;6326533;27;20157;-42
2022/03/26 03:51:11;;;;;;;;;;;21.70;30.90;;;;;;6328580;27;20086;-41
2022/03/26 03:54:13;;;;;;;2.05;1.67;;;21.70;30.90;;;;;;6321829;27;19919;-41
2022/03/26 03:57:14;;;;;;;1.85;1.58;;;21.70;31.00;;;;;;6323680;27;20043;-42
2022/03/26 04:00:16;;;;;;;1.75;1.40;;;21.60;30.90;;;;;;6325695;27;20041;-41
2022/03/26 04:03:18;;;;;;;2.25;2.03;;;21.60;31.00;;;;;;6326435;27;20837;-41
2022/03/26 04:06:20;;;;;;;1.70;1.60;;;21.70;31.00;;;;;;6328632;27;20050;-44
2022/03/26 04:09:21;;;;;;;2.40;1.77;;;21.50;30.90;;;;;;6324115;27;20224;-41
2022/03/26 04:12:23;;;;;;;1.67;1.50;;;21.70;31.00;;;;;;6327555;27;20316;-42
2022/03/26 04:15:24;;;;;;;;;;;21.70;31.00;;;;;;6324251;27;20030;-42
2022/03/26 04:18:26;;;;;;;1.67;1.50;;;21.70;31.10;;;;;;6325048;27;19927;-43
2022/03/26 04:21:28;;;;;;;2.28;1.75;;;21.70;31.00;;;;;;6331430;27;20142;-42
2022/03/26 04:24:30;;;;;;;2.03;1.80;;;21.70;31.00;;;;;;6325659;27;20040;-43
2022/03/26 04:27:32;;;;;;;2.22;1.45;;;21.70;31.10;;;;;;6324398;27;20032;-43
2022/03/26 04:30:33;;;;;;;1.65;1.45;;;21.60;31.10;;;;;;6328311;27;20042;-43
2022/03/26 04:33:35;;;;;;;;;;;21.60;31.00;;;;;;6318774;27;20073;-43
2022/03/26 04:36:37;;;;;;;2.28;1.65;;;21.70;31.10;;;;;;6287451;27;20035;-40
2022/03/26 04:39:39;;;;;;;1.90;1.55;;;21.60;31.00;;;;;;6322419;27;21054;-42
2022/03/26 04:42:41;;;;;;;2.10;1.90;;;21.60;31.00;;;;;;6326533;27;20119;-41
2022/03/26 04:45:42;;;;;;;1.90;1.58;;;21.60;31.70;;;;;;6307518;27;20051;-41
2022/03/26 04:48:46;;;;;;;2.33;1.80;;;21.60;31.00;;;;;;6323449;27;20035;-45
2022/03/26 04:51:48;;;;;;;2.03;1.65;;;21.60;31.10;;;;;;6316415;27;20043;-41
2022/03/26 04:54:49;;;;;;;2.03;1.60;;;21.60;31.20;;;;;;6321470;27;20039;-40
2022/03/26 04:57:51;;;;;;;;;;;21.60;31.10;;;;;;6325499;27;20513;-41
2022/03/26 05:00:52;;;;;;;;;;;21.60;31.10;;;;;;6324473;27;19959;-43
2022/03/26 05:03:54;;;;;;;1.83;1.50;;;21.60;31.10;;;;;;6325063;27;19928;-44
2022/03/26 05:06:56;;;;;;;1.95;1.40;;;21.40;30.90;;;;;;6323734;27;20040;-43
2022/03/26 05:09:58;;;;;;;1.70;1.60;;;21.60;31.10;;;;;;6325790;27;20139;-44
2022/03/26 05:12:59;;;;;;;;;;;21.60;31.10;;;;;;6318268;27;20993;-40
2022/03/26 05:16:02;;;;;;;1.55;1.15;;;21.50;31.00;;;;;;6318298;27;19927;-41
2022/03/26 05:19:03;;;;;;;1.38;1.27;;;21.60;31.10;;;;;;6321587;27;20047;-41
2022/03/26 05:22:06;;;;;;;2.22;1.38;;;21.60;31.10;;;;;;6316162;27;20082;-41
2022/03/26 05:25:08;;;;;;;1.73;1.42;;;21.60;31.10;;;;;;6313660;27;21014;-41
2022/03/26 05:28:09;;;;;;;1.70;1.25;;;21.60;31.10;;;;;;6314624;27;20909;-41
2022/03/26 05:31:11;;;;;;;1.73;1.48;;;21.60;31.10;;;;;;6317269;27;20102;-41
2022/03/26 05:34:13;;;;;;;1.83;1.30;;;21.60;31.10;;;;;;6319316;27;20911;-41
2022/03/26 05:37:15;;;;;;;1.73;1.35;;;21.60;31.10;;;;;;6312137;27;20051;-42
2022/03/26 05:40:19;;;;;;;2.05;1.40;;;21.50;31.00;;;;;;6318903;27;21058;-41
2022/03/26 05:43:20;;;;;;;1.42;1.30;;;21.50;31.00;;;;;;6321150;27;20042;-41
2022/03/26 05:46:22;;;;;;;2.42;1.38;;;21.60;31.10;;;;;;6321644;27;20027;-43
2022/03/26 05:49:25;;;;;;;1.20;1.10;;;21.60;31.10;;;;;;6319434;27;20050;-41
2022/03/26 05:52:27;;;;;;;2.25;1.55;;;21.50;31.00;;;;;;6320546;27;20050;-42
2022/03/26 05:55:29;;;;;;;1.52;1.40;;;21.50;31.00;;;;;;6293173;27;20077;-43
2022/03/26 05:58:31;;;;;;;1.70;1.48;;;21.50;31.10;;;;;;6307762;27;20166;-41
2022/03/26 06:01:33;;;;;;;1.83;1.30;;;21.40;31.00;;;;;;6316017;27;20816;-41
2022/03/26 06:04:34;;;;;;;1.98;1.65;;;21.50;31.10;;;;;;6302629;27;20035;-41
2022/03/26 06:07:37;;;;;;;;;;;21.50;31.10;;;;;;6320264;27;20039;-41
2022/03/26 06:10:39;;;;;;;1.92;1.45;;;21.50;31.10;;;;;;6320135;27;20717;-41
2022/03/26 06:13:40;;;;;;;1.80;1.40;;;21.50;31.10;;;;;;6324296;27;20038;-41
2022/03/26 06:16:42;;;;;;;2.10;1.40;;;21.50;31.10;;;;;;6315404;27;20144;-43
2022/03/26 06:19:44;;;;;;;2.03;1.75;;;21.50;31.10;;;;;;6322812;27;20047;-41
2022/03/26 06:22:46;;;;;;;;;;;21.50;31.10;;;;;;6321653;27;20206;-41
2022/03/26 06:25:48;;;;;;;1.40;1.05;;;21.50;31.10;;;;;;6320663;27;19927;-41
2022/03/26 06:28:50;;;;;;;1.80;1.27;;;21.50;31.10;;;;;;6320800;27;20074;-41
2022/03/26 06:31:52;;;;;;;2.13;1.20;;;21.50;31.10;;;;;;6325198;27;20043;-41
2022/03/26 06:34:53;;;;;;;1.20;1.10;;;21.50;31.10;;;;;;6324578;27;20926;-40
2022/03/26 06:37:55;;;;;;;;;;;21.50;31.20;;;;;;6313182;27;20622;-41
2022/03/26 06:40:57;;;;;;;1.30;1.00;;;21.50;31.20;;;;;;6317261;27;19958;-40
2022/03/26 06:43:58;;;;;;;2.22;1.50;;;21.40;31.10;;;;;;6314908;27;20050;-41
2022/03/26 06:47:00;;;;;;;1.20;1.00;;;21.40;31.10;;;;;;6293641;27;20035;-41
2022/03/26 06:50:02;;;;;;;1.65;1.48;;;21.40;31.10;;;;;;6308305;27;20035;-41
2022/03/26 06:53:04;;;;;;;1.55;1.20;;;21.40;31.10;;;;;;6318293;27;20034;-40
2022/03/26 06:56:06;;;;;;;1.67;1.20;;;21.40;31.20;;;;;;6312774;27;20035;-40
2022/03/26 06:59:12;;;;;;;1.42;1.17;;;21.50;31.20;;;;;;6298430;27;20747;-42
2022/03/26 07:02:14;;;;;;;1.40;1.08;;;21.50;31.20;;;;;;6318291;27;20568;-41
2022/03/26 07:05:16;;;;;;;1.67;1.17;;;21.40;31.10;;;;;;6312504;27;20999;-42
2022/03/26 07:08:18;;;;;;;1.38;1.27;;;21.70;31.30;;;;;;6315624;27;20437;-40
2022/03/26 07:11:20;;;;;;;2.10;1.33;;;21.50;31.20;;;;;;6321620;27;20047;-41
2022/03/26 07:14:22;;;;;;;1.48;1.30;;;21.50;31.20;;;;;;6316728;27;20196;-41
2022/03/26 07:17:28;;;;;;;1.67;1.10;;;21.50;31.20;;;;;;6313300;27;20030;-41
2022/03/26 07:20:30;;;;;;;1.45;1.08;;;21.50;31.20;;;;;;6301196;27;20074;-42
2022/03/26 07:23:32;;;;;;;1.23;1.13;;;21.50;31.20;;;;;;6317398;27;20027;-42
2022/03/26 07:26:34;;;;;;;1.40;1.00;;;21.50;31.20;;;;;;6320496;27;20108;-41
2022/03/26 07:29:38;;;;;;;;;;;21.60;31.20;;;;;;6318594;27;20180;-42
2022/03/26 07:32:40;;;;;;;1.50;1.25;;;21.50;31.20;;;;;;6320116;27;19959;-42
2022/03/26 07:35:41;;;;;;;1.15;0.90;;;21.50;31.10;;;;;;6302364;27;20063;-41
2022/03/26 07:38:43;;;;;;;;;;;21.50;31.10;;;;;;6318886;27;20077;-43
2022/03/26 07:41:45;;;;;;;0.95;0.85;;;21.50;31.10;;;;;;6321768;27;19935;-41
2022/03/26 07:44:47;;;;;;;1.20;1.00;;;21.50;31.80;;;;;;6318407;27;20070;-43
2022/03/26 07:47:48;;;;;;;1.50;1.10;;;21.40;31.10;;;;;;6315531;27;20058;-40
2022/03/26 07:50:54;;;;;;;1.33;1.02;;;21.50;31.20;;;;;;6311198;27;20047;-41
2022/03/26 07:53:57;;;;;;;1.38;1.17;;;21.50;31.10;;;;;;6319376;27;20043;-40
2022/03/26 07:56:59;;;;;;;1.70;1.30;;;21.60;31.30;;;;;;6316042;27;20048;-42
2022/03/26 08:00:01;;;;;;;1.60;1.17;;;21.60;31.20;;;;;;6316254;27;20043;-42
2022/03/26 08:03:02;;;;;;;1.52;1.08;;;21.60;31.20;;;;;;6317895;27;20038;-42
2022/03/26 08:06:05;;;;;;;1.60;1.10;;;21.60;31.20;;;;;;6320180;27;20035;-41
2022/03/26 08:09:10;;;;;;;1.33;1.10;;;21.60;31.20;;;;;;6319100;27;20039;-41
2022/03/26 08:12:12;;;;;;;1.50;1.17;;;21.60;31.20;;;;;;6316714;27;20126;-42
2022/03/26 08:15:14;;;;;;;1.60;1.00;;;21.60;31.20;;;;;;6321842;27;21341;-40
2022/03/26 08:18:16;;;;;;;1.75;1.00;;;21.60;31.20;;;;;;6322782;27;20775;-41
2022/03/26 08:21:20;;;;;;;1.77;1.23;;;21.50;31.10;;;;;;6314601;27;20043;-42
2022/03/26 08:24:22;;;;;;;1.42;1.02;;;21.60;31.20;;;;;;6316695;27;20043;-41
2022/03/26 08:27:24;;;;;;;1.35;0.98;;;21.60;31.20;;;;;;6301712;27;20038;-40
2022/03/26 08:30:25;;;;;;;1.77;1.13;;;21.60;31.20;;;;;;6314559;27;20111;-41
2022/03/26 08:33:27;;;;;;;1.20;1.10;;;21.50;31.10;;;;;;6314780;27;20070;-43
2022/03/26 08:36:30;;;;;;;;;;;21.70;31.30;;;;;;6317217;27;20046;-41
2022/03/26 08:39:32;;;;;;;1.50;1.10;;;21.70;31.30;;;;;;6276517;27;20446;-43
2022/03/26 08:42:34;;;;;;;1.70;1.08;;;21.70;31.20;;;;;;6309150;27;20379;-44
2022/03/26 08:45:36;;;;;;;1.20;1.08;;;21.70;31.30;;;;;;6304403;27;20134;-41
2022/03/26 08:48:38;;;;;;;1.40;1.20;;;21.70;31.30;;;;;;6308466;27;20866;-41
2022/03/26 08:51:39;;;;;;;2.00;1.20;;;21.70;31.30;;;;;;6305535;27;20046;-42
2022/03/26 08:54:42;;;;;;;1.83;1.20;;;21.70;31.40;;;;;;6290367;27;20228;-41
2022/03/26 08:57:44;;;;;;;1.95;1.70;;;21.80;31.40;;;;;;6315265;27;20047;-44
2022/03/26 09:00:47;;;;;;;1.67;1.38;;;21.90;31.50;;;;;;6314308;27;20162;-41
2022/03/26 09:03:50;;;;;;;1.50;1.40;;;21.60;31.40;;;;;;6296740;27;20174;-42
2022/03/26 09:06:52;;;;;;;1.20;1.10;;;21.60;31.40;;;;;;6301060;27;20039;-41
2022/03/26 09:09:54;;;;;;;1.30;1.00;;;21.80;31.50;;;;;;6306390;27;20066;-41
2022/03/26 09:12:56;;;;;;;1.75;1.40;;;21.70;31.40;;;;;;6309751;27;20039;-42
2022/03/26 09:15:58;;;;;;;;;;;21.80;31.50;;;;;;6306752;27;20455;-42
2022/03/26 09:19:00;;;;;;;1.38;1.05;;;21.90;31.50;;;;;;6311323;27;19930;-41
2022/03/26 09:22:02;;;;;;;1.30;1.02;;;21.80;31.40;;;;;;6295569;27;20625;-41
2022/03/26 09:25:10;;;;;;;1.30;0.80;;;21.80;31.50;;;;;;6301715;27;20074;-42
2022/03/26 09:28:11;;;;;;;1.48;1.20;;;21.90;31.60;;;;;;6300807;27;20940;-42
2022/03/26 09:31:13;;;;;;;1.30;1.10;;;21.90;31.60;;;;;;6306312;27;20439;-42
2022/03/26 09:34:14;;;;;;;1.38;1.20;;;22.00;31.60;;;;;;6307325;27;20293;-40
2022/03/26 09:37:16;;;;;;;;;;;22.10;31.60;;;;;;6303203;27;20576;-43
2022/03/26 09:40:21;;;;;;;1.45;1.10;;;22.30;31.80;;;;;;6285891;27;20436;-44
2022/03/26 09:43:23;;;;;;;1.48;1.38;;;22.00;31.50;;;;;;6309721;27;20045;-40
2022/03/26 09:46:25;;;;;;;1.42;1.10;;;22.10;31.60;;;;;;6300830;27;20147;-44
2022/03/26 09:49:27;;;;;;;1.50;1.13;;;22.00;31.60;;;;;;6298760;27;20448;-42
2022/03/26 09:52:29;;;;;;;1.42;1.10;;;22.10;31.60;;;;;;6289524;27;20391;-41
2022/03/26 09:55:33;;;;;;;1.48;1.05;;;22.20;31.80;;;;;;6304401;27;20538;-43
2022/03/26 09:58:35;;;;;;;1.40;1.30;;;22.20;31.80;;;;;;6302102;27;20755;-42
2022/03/26 10:01:36;;;;;;;;;;;22.20;31.80;;;;;;6301990;27;20153;-41
2022/03/26 10:04:39;;;;;;;;;;;22.20;31.70;;;;;;6308330;27;19927;-42
2022/03/26 10:07:41;;;;;;;1.85;1.42;;;22.20;31.70;;;;;;6285011;27;19950;-44
2022/03/26 10:10:44;;;;;;;1.50;1.27;;;22.30;31.70;;;;;;6302826;27;20153;-41
2022/03/26 10:13:47;;;;;;;1.48;1.38;;;22.30;31.80;;;;;;6307786;27;20417;-41
2022/03/26 10:16:50;;;;;;;2.03;1.48;;;22.30;31.80;;;;;;6312898;27;20134;-42
2022/03/26 10:19:55;;;;;;;1.55;1.30;;;22.40;31.90;;;;;;6288910;27;20166;-43
2022/03/26 10:22:56;;;;;;;1.50;1.40;;;22.30;31.90;;;;;;6285567;27;20213;-42
2022/03/26 10:26:07;;;;;;;1.52;1.33;;;22.40;31.90;;;;;;6279140;27;20386;-41
2022/03/26 10:29:09;;;;;;;1.65;1.33;;;22.40;32.00;;;;;;6290606;27;20737;-42
2022/03/26 10:35:27;;;;;;;1.80;1.42;;;22.40;32.00;;;;;;6302234;27;20458;-41
2022/03/26 10:38:29;;;;;;;1.98;1.60;;;22.50;32.00;;;;;;6285618;27;20066;-41
2022/03/26 10:41:38;;;;;;;1.70;1.58;;;22.50;32.00;;;;;;6285899;27;20162;-41
2022/03/26 10:44:39;;;;;;;2.08;1.70;;;22.50;32.00;;;;;;6301979;27;20041;-44
2022/03/26 10:47:41;;;;;;;2.10;1.60;;;22.50;32.00;;;;;;6310265;27;20043;-41
2022/03/26 10:50:42;;;;;;;2.38;1.80;;;22.50;32.00;;;;;;6313081;27;20318;-41
2022/03/26 10:53:46;;;;;;;1.90;1.50;;;22.50;32.00;;;;;;6299768;27;20255;-41
2022/03/26 10:56:50;;;;;;;2.08;1.42;;;22.50;32.00;;;;;;6287749;27;20070;-41
2022/03/26 10:59:51;;;;;;;1.90;1.60;;;22.60;32.20;;;;;;6308199;27;20041;-41
2022/03/26 11:02:53;;;;;;;1.77;1.50;;;22.50;31.90;;;;;;6321082;27;20928;-41
2022/03/26 11:05:56;;;;;;;1.75;1.63;;;22.60;32.00;;;;;;6317302;27;20512;-43
2022/03/26 11:09:01;;;;;;;2.17;1.98;;;22.70;32.00;;;;;;6306098;27;20357;-44
2022/03/26 11:12:04;;;;;;;1.95;1.63;;;22.50;31.90;;;;;;6309256;27;20150;-41
2022/03/26 11:15:10;;;;;;;2.30;1.60;;;22.50;31.90;;;;;;6309592;27;20320;-41
2022/03/26 11:18:27;;;;;;;2.08;1.83;;;22.60;31.90;;;;;;6307950;27;20406;-42
2022/03/26 11:21:53;;;;;;;2.53;2.10;;;22.70;32.60;;;;;;6309204;27;21171;-41
2022/03/26 11:25:14;;;;;;;2.33;1.80;;;22.70;31.90;;;;;;6288624;27;20164;-41
2022/03/26 11:28:32;;;;;;;2.58;2.15;;;22.70;31.90;;;;;;6310468;27;20454;-43
2022/03/26 11:31:44;;;;;;;2.25;2.05;;;22.80;31.90;;;;;;6290026;27;20078;-42
2022/03/26 11:34:56;;;;;;;2.95;1.80;;;22.80;31.90;;;;;;6287503;27;20598;-43
2022/03/26 11:38:01;;;;;;;2.08;1.60;;;22.80;31.80;;;;;;6288689;27;20192;-42
2022/03/26 11:41:05;;;;;;;2.13;1.77;;;22.80;31.80;;;;;;6305916;27;20158;-42
2022/03/26 11:44:08;;;;;;;2.00;1.65;;;22.90;31.80;;;;;;6302261;27;20181;-41
2022/03/26 11:53:44;;;;;;;1.98;1.50;;;22.80;31.60;;;;;;6289933;27;20579;-43
2022/03/26 11:56:47;;;;;;;1.70;1.33;;;22.90;31.60;;;;;;6304672;27;20515;-42
2022/03/26 11:59:50;;;;;;;1.40;1.30;;;22.90;31.60;;;;;;6307372;27;20086;-40
2022/03/26 12:02:53;;;;;;;1.65;1.35;;;22.90;31.50;;;;;;6305738;27;20309;-41
2022/03/26 12:09:29;;;;;;;1.80;1.23;;;23.00;31.50;;;;;;6307832;27;20130;-41
2022/03/26 12:12:45;;;;;;;1.42;1.30;;;22.90;31.40;;;;;;6292202;27;20208;-42
2022/03/26 12:15:58;;;;;;;1.60;1.27;;;23.00;31.40;;;;;;6310373;27;21523;-41
2022/03/26 12:19:00;;;;;;;1.58;1.25;;;23.00;31.30;;;;;;6307815;27;20836;-41
2022/03/26 12:22:17;;;;;;;1.80;1.45;;;23.00;31.30;;;;;;6304828;27;20154;-41
2022/03/26 12:25:33;;;;;;;1.40;1.30;;;23.00;31.20;;;;;;6288471;27;20429;-41
2022/03/26 12:28:36;;;;;;;1.55;1.38;;;23.10;31.20;;;;;;6279164;27;20418;-41
2022/03/26 12:31:38;;;;;;;1.38;1.27;;;23.10;31.10;;;;;;6285422;27;20822;-41
2022/03/26 12:34:55;;;;;;;1.42;1.33;;;23.00;31.00;;;;;;6307313;27;20509;-41
2022/03/26 12:37:57;;;;;;;1.38;1.23;;;23.10;31.00;;;;;;6302137;27;20333;-41
2022/03/26 12:41:01;;;;;;;1.20;1.10;;;23.00;30.90;;;;;;6301377;27;20081;-41
2022/03/26 12:44:03;;;;;;;1.25;1.13;;;23.20;31.00;;;;;;6290665;27;20505;-41
2022/03/26 12:47:05;;;;;;;1.30;1.20;;;23.10;30.90;;;;;;6301686;27;20353;-41
2022/03/26 12:50:07;;;;;;;1.48;1.20;;;23.20;30.80;;;;;;6304459;27;20520;-42
2022/03/26 12:53:10;;;;;;;1.50;1.20;;;23.10;30.70;;;;;;6304660;27;20697;-42
2022/03/26 12:56:12;;;;;;;1.88;1.50;;;23.10;30.70;;;;;;6292306;27;20408;-41
2022/03/26 12:59:14;;;;;;;1.67;1.58;;;23.20;30.70;;;;;;6303854;27;20262;-43
2022/03/26 13:02:17;;;;;;;1.33;1.05;;;23.20;30.70;;;;;;6285984;27;20144;-42
2022/03/26 13:05:18;;;;;;;1.50;1.40;;;23.20;30.60;;;;;;6302925;27;20069;-41
2022/03/26 13:08:20;;;;;;;2.20;1.90;;;23.30;30.60;;;;;;6295068;27;20145;-41
2022/03/26 13:11:24;;;;;;;2.95;1.95;;;23.30;30.50;;;;;;6301192;27;20146;-42
2022/03/26 13:14:25;;;;;;;4.10;3.13;;;23.30;30.60;;;;;;6303476;27;20589;-41
2022/03/26 13:17:27;;;;;;;4.53;3.80;;;23.20;30.20;;;;;;6300956;27;20084;-41
2022/03/26 13:20:32;;;;;;;4.10;3.25;;;23.30;30.10;;;;;;6295783;27;20180;-41
2022/03/26 13:23:34;;;;;;;3.67;3.20;;;23.30;30.00;;;;;;6280184;27;20094;-41
2022/03/26 13:26:46;;;;;;;4.55;3.72;;;23.50;30.00;;;;;;6281795;27;20043;-41
2022/03/26 13:29:47;;;;;;;4.10;3.70;;;23.30;29.70;;;;;;6291627;27;20073;-41
2022/03/26 13:32:54;;;;;;;3.88;3.47;;;23.30;29.60;;;;;;6280161;27;21015;-41
2022/03/26 13:35:57;;;;;;;5.18;4.03;;;23.30;29.40;;;;;;6285096;27;20162;-40
2022/03/26 13:39:02;;;;;;;5.10;4.32;;;23.40;29.30;;;;;;6302244;27;20390;-41
2022/03/26 13:42:08;;;;;;;4.82;4.18;;;23.40;29.00;;;;;;6302714;27;20491;-41
2022/03/26 13:45:11;;;;;;;5.30;4.25;;;23.40;28.70;;;;;;6302265;27;20266;-40
2022/03/26 13:48:13;;;;;;;4.47;4.03;;;23.40;28.60;;;;;;6300107;27;20956;-41
2022/03/26 13:51:15;;;;;;;4.93;4.25;;;23.40;28.50;;;;;;6301228;27;20324;-41
2022/03/26 13:54:19;;;;;;;4.70;3.88;;;23.50;28.30;;;;;;6302330;27;20592;-41
2022/03/26 13:57:29;;;;;;;4.72;4.10;;;23.40;28.10;;;;;;6299641;27;20300;-42
2022/03/26 14:00:31;;;;;;;4.68;4.15;;;23.60;28.00;;;;;;6303349;27;20046;-41
2022/03/26 14:03:36;;;;;;;4.97;4.15;;;23.40;27.90;;;;;;6303077;27;20708;-41
2022/03/26 14:06:38;;;;;;;5.43;4.63;;;23.50;27.90;;;;;;6301935;27;20035;-42
2022/03/26 14:09:40;;;;;;;;;;;23.60;28.00;;;;;;6301158;27;20153;-42
2022/03/26 14:12:41;;;;;;;;;;;23.50;27.90;;;;;;6301426;27;19950;-41
2022/03/26 14:15:44;;;;;;;5.10;4.35;;;23.50;28.00;;;;;;6275742;27;19940;-42
2022/03/26 14:18:47;;;;;;;5.57;4.32;;;23.50;28.00;;;;;;6268808;27;20152;-41
2022/03/26 14:21:49;;;;;;;4.68;4.00;;;23.50;28.00;;;;;;6270798;27;20382;-42
2022/03/26 14:24:50;;;;;;;4.97;4.35;;;23.50;28.00;;;;;;6286416;27;20259;-42
2022/03/26 14:27:52;;;;;;;5.47;4.80;;;23.60;28.00;;;;;;6256619;27;20699;-41
2022/03/26 14:30:55;;;;;;;6.50;5.15;;;23.50;27.90;;;;;;6275742;27;21064;-42
2022/03/26 14:33:57;;;;;;;5.15;4.65;;;23.60;27.90;;;;;;6276174;27;20066;-41
2022/03/26 14:37:18;;;;;;;5.55;4.75;;;23.60;28.00;;;;;;6284624;27;20271;-41
2022/03/26 14:40:21;;;;;;;5.10;4.28;;;23.60;27.90;;;;;;6267162;27;20422;-41
2022/03/26 14:43:22;;;;;;;5.43;4.75;;;23.60;27.80;;;;;;6272303;27;20043;-41
2022/03/26 14:46:24;;;;;;;5.18;4.45;;;23.60;27.80;;;;;;6274750;27;20420;-41
2022/03/26 14:49:26;;;;;;;5.18;4.68;;;23.60;27.70;;;;;;6283721;27;21455;-41
2022/03/26 14:52:28;;;;;;;5.30;4.65;;;23.60;27.70;;;;;;6291867;27;20050;-40
2022/03/26 14:55:30;;;;;;;5.07;4.43;;;23.60;27.70;;;;;;6268496;27;20691;-40
2022/03/26 14:58:31;;;;;;;5.10;4.35;;;23.60;27.70;;;;;;6287056;27;20220;-41
2022/03/26 15:01:33;;;;;;;4.55;4.03;;;23.60;27.70;;;;;;6287524;27;20145;-43
2022/03/26 15:04:36;;;;;;;4.80;4.35;;;23.70;27.80;;;;;;6295915;27;20291;-41
2022/03/26 15:07:38;;;;;;;5.22;4.47;;;23.60;27.80;;;;;;6301710;27;20069;-42
2022/03/26 15:10:40;;;;;;;4.97;4.18;;;23.70;27.80;;;;;;6280108;27;20047;-41
2022/03/26 15:13:41;;;;;;;5.45;4.47;;;23.70;27.90;;;;;;6299466;27;20150;-41
2022/03/26 15:16:43;;;;;;;5.20;4.60;;;23.70;27.90;;;;;;6292280;27;20608;-40
2022/03/26 15:19:45;;;;;;;4.68;4.20;;;23.70;27.90;;;;;;6298394;27;20124;-41
2022/03/26 15:22:46;;;;;;;4.63;4.18;;;23.70;27.90;;;;;;6282837;27;20446;-42
2022/03/26 15:25:48;;;;;;;4.55;4.10;;;23.70;27.80;;;;;;6300839;27;20956;-41
2022/03/26 15:28:49;;;;;;;4.43;3.88;;;23.70;27.70;;;;;;6282807;27;20046;-41
2022/03/26 15:31:51;;;;;;;4.90;4.40;;;23.70;27.70;;;;;;6300198;27;21032;-42
2022/03/26 15:34:53;;;;;;;4.50;4.10;;;23.80;27.70;;;;;;6303617;27;20161;-41
2022/03/26 15:37:55;;;;;;;4.65;4.10;;;23.70;27.70;;;;;;6295542;27;21957;-41
2022/03/26 15:40:57;;;;;;;5.10;4.38;;;23.70;27.60;;;;;;6288966;27;20047;-41
2022/03/26 15:43:58;;;;;;;5.32;4.82;;;23.70;27.60;;;;;;6291302;27;20039;-42
2022/03/26 15:47:03;;;;;;;5.00;4.50;;;23.80;27.60;;;;;;6301659;27;20158;-43
2022/03/26 15:50:07;;;;;;;5.10;4.10;;;23.70;27.60;;;;;;6281480;27;20274;-43
2022/03/26 15:53:14;;;;;;;5.05;4.45;;;23.80;27.60;;;;;;6294033;27;20047;-41
2022/03/26 15:56:15;;;;;;;5.07;4.40;;;23.80;27.60;;;;;;6301206;27;20704;-41
2022/03/26 15:59:17;;;;;;;4.55;4.15;;;23.80;27.60;;;;;;6299242;27;20366;-41
2022/03/26 16:02:19;;;;;;;4.53;3.78;;;23.80;27.60;;;;;;6304819;27;20481;-42
2022/03/26 16:05:22;;;;;;;5.43;4.70;;;23.70;27.70;;;;;;6287091;27;20258;-41
2022/03/26 16:08:24;;;;;;;4.75;4.03;;;23.80;27.60;;;;;;6276983;27;20773;-42
2022/03/26 16:11:25;;;;;;;4.90;4.40;;;23.70;27.50;;;;;;6297370;27;20043;-41